Time;durP1;ratioP1;P1;durP2;ratioP2;P2;SDS_P1;SDS_P2;PMS_P1;PMS_P2;Temp;Humidity;BMP_temperature;BMP_pressure;BME280_temperature;BME280_humidity;BME280_pressure;Samples;Min_cycle;Max_cycle;Signal;HPM_P1;HPM_P2
2023/11/25 00:01:07;;;;;;;3.25;2.55;;;23.70;99.90;;;;;;5032964;28;20561;-46
2023/11/25 00:03:32;;;;;;;3.83;2.78;;;23.70;99.90;;;;;;5033018;28;20389;-46
2023/11/25 00:05:58;;;;;;;4.20;3.05;;;23.70;99.90;;;;;;5032982;28;20034;-46
2023/11/25 00:08:26;;;;;;;4.20;3.15;;;23.70;99.90;;;;;;5032967;28;20044;-46
2023/11/25 00:10:52;;;;;;;3.70;2.47;;;23.70;99.90;;;;;;5033003;28;20045;-46
2023/11/25 00:13:18;;;;;;;4.43;2.70;;;23.70;99.90;;;;;;5032978;28;20071;-46
2023/11/25 00:15:43;;;;;;;3.50;2.60;;;23.70;99.90;;;;;;5032995;28;20026;-47
2023/11/25 00:18:10;;;;;;;4.38;2.78;;;23.70;99.90;;;;;;5033172;28;20388;-46
2023/11/25 00:20:36;;;;;;;3.90;2.75;;;23.60;99.90;;;;;;5032887;28;20036;-46
2023/11/25 00:23:03;;;;;;;3.40;2.40;;;23.60;99.90;;;;;;5032749;28;20025;-47
2023/11/25 00:25:29;;;;;;;3.73;2.60;;;23.60;99.90;;;;;;5032730;28;20025;-47
2023/11/25 00:27:55;;;;;;;4.25;2.72;;;23.60;99.90;;;;;;5032403;28;20364;-46
2023/11/25 00:30:21;;;;;;;3.30;2.45;;;23.60;99.90;;;;;;5032746;28;20478;-47
2023/11/25 00:32:47;;;;;;;4.03;2.60;;;23.60;99.90;;;;;;5032640;28;20029;-47
2023/11/25 00:35:14;;;;;;;4.10;3.10;;;23.60;99.90;;;;;;5032639;28;20021;-46
2023/11/25 00:37:40;;;;;;;3.03;2.30;;;23.60;99.90;;;;;;5032624;28;20084;-47
2023/11/25 00:40:15;;;;;;;3.35;2.80;;;23.60;99.90;;;;;;5032292;28;20524;-46
2023/11/25 00:42:41;;;;;;;3.05;2.42;;;23.60;99.90;;;;;;5032563;28;20397;-46
2023/11/25 00:45:10;;;;;;;3.67;2.60;;;23.60;99.90;;;;;;5032477;28;20026;-46
2023/11/25 00:47:39;;;;;;;4.07;2.75;;;23.50;99.90;;;;;;5032369;28;20080;-46
2023/11/25 00:50:06;;;;;;;2.47;2.05;;;23.50;99.90;;;;;;5032363;28;20021;-46
2023/11/25 00:52:32;;;;;;;3.75;2.47;;;23.50;99.90;;;;;;5032391;28;20021;-46
2023/11/25 00:54:58;;;;;;;6.00;3.13;;;23.50;99.90;;;;;;5032326;28;20035;-46
2023/11/25 00:57:24;;;;;;;4.47;2.63;;;23.50;99.90;;;;;;5032200;28;20037;-46
2023/11/25 00:59:49;;;;;;;3.08;2.30;;;23.50;99.90;;;;;;5032376;28;20350;-46
2023/11/25 01:02:15;;;;;;;4.07;2.35;;;23.50;99.90;;;;;;5032267;28;20053;-46
2023/11/25 01:04:42;;;;;;;3.13;1.98;;;23.50;99.90;;;;;;5032143;28;20061;-46
2023/11/25 01:07:09;;;;;;;3.40;2.45;;;23.40;99.90;;;;;;5032147;28;20035;-46
2023/11/25 01:09:36;;;;;;;4.55;2.30;;;23.40;99.90;;;;;;5032216;28;20055;-46
2023/11/25 01:12:01;;;;;;;3.85;2.75;;;23.40;99.90;;;;;;5032078;28;20036;-46
2023/11/25 01:14:27;;;;;;;3.92;2.70;;;23.40;99.90;;;;;;5032042;28;20385;-46
2023/11/25 01:16:53;;;;;;;3.70;2.75;;;23.40;99.90;;;;;;5032152;28;20105;-46
2023/11/25 01:19:19;;;;;;;3.00;2.15;;;23.40;99.90;;;;;;5032098;28;20071;-46
2023/11/25 01:21:45;;;;;;;3.83;2.50;;;23.40;99.90;;;;;;5032366;28;20512;-46
2023/11/25 01:24:11;;;;;;;3.00;2.20;;;23.40;99.90;;;;;;5031955;28;20402;-46
2023/11/25 01:26:38;;;;;;;4.32;2.10;;;23.40;99.90;;;;;;5032031;28;20029;-46
2023/11/25 01:29:04;;;;;;;3.42;2.53;;;23.30;99.90;;;;;;5014537;28;20029;-47
2023/11/25 01:31:31;;;;;;;3.72;2.47;;;23.40;99.90;;;;;;5031947;28;20052;-47
2023/11/25 01:33:57;;;;;;;2.97;2.40;;;23.40;99.90;;;;;;5014258;28;20040;-47
2023/11/25 01:36:23;;;;;;;3.92;2.50;;;23.30;99.90;;;;;;5031889;28;20100;-46
2023/11/25 01:38:49;;;;;;;4.55;2.50;;;23.30;99.90;;;;;;5032000;28;20053;-45
2023/11/25 01:41:15;;;;;;;3.05;2.00;;;23.30;99.90;;;;;;5032042;28;20053;-45
2023/11/25 01:43:41;;;;;;;3.85;2.30;;;23.30;99.90;;;;;;5031774;28;20032;-45
2023/11/25 01:46:07;;;;;;;3.35;2.30;;;23.30;99.90;;;;;;5031758;28;20358;-46
2023/11/25 01:48:34;;;;;;;4.03;2.38;;;23.30;99.90;;;;;;5014401;28;20064;-46
2023/11/25 01:51:04;;;;;;;4.32;2.55;;;23.30;99.90;;;;;;5033653;28;20026;-45
2023/11/25 01:53:31;;;;;;;6.07;2.72;;;23.30;99.90;;;;;;5035592;28;20400;-47
2023/11/25 01:55:58;;;;;;;2.80;1.90;;;23.20;99.90;;;;;;5035708;28;20045;-46
2023/11/25 01:58:26;;;;;;;2.70;2.20;;;23.30;99.90;;;;;;5035617;28;20435;-47
2023/11/25 02:00:52;;;;;;;2.63;2.05;;;23.20;99.90;;;;;;5047142;22;20365;-47
2023/11/25 02:03:18;;;;;;;2.72;2.05;;;23.20;99.90;;;;;;5034490;28;20109;-47
2023/11/25 02:05:45;;;;;;;4.10;2.53;;;23.20;99.90;;;;;;5032297;28;20053;-48
2023/11/25 02:08:11;;;;;;;4.85;2.22;;;23.20;99.90;;;;;;5033166;28;20033;-49
2023/11/25 02:10:39;;;;;;;3.50;2.10;;;23.20;99.90;;;;;;5030247;28;20033;-48
2023/11/25 02:13:08;;;;;;;2.90;2.28;;;23.20;99.90;;;;;;5033592;28;20025;-49
2023/11/25 02:15:39;;;;;;;3.72;1.90;;;23.20;99.90;;;;;;5031435;28;20029;-49
2023/11/25 02:18:07;;;;;;;2.80;2.13;;;23.10;99.90;;;;;;5032515;28;20405;-49
2023/11/25 02:20:38;;;;;;;2.30;1.90;;;23.20;99.90;;;;;;5032016;28;20025;-49
2023/11/25 02:23:04;;;;;;;2.35;1.85;;;23.20;99.90;;;;;;5031315;28;20385;-49
2023/11/25 02:25:31;;;;;;;2.80;2.03;;;23.10;99.90;;;;;;5032842;28;20116;-49
2023/11/25 02:27:56;;;;;;;4.72;2.17;;;23.10;99.90;;;;;;5031903;28;20037;-47
2023/11/25 02:30:23;;;;;;;2.80;2.13;;;23.10;99.90;;;;;;5032584;28;20025;-47
2023/11/25 02:32:53;;;;;;;3.10;2.35;;;23.10;99.90;;;;;;5014538;28;20041;-47
2023/11/25 02:35:20;;;;;;;2.22;1.80;;;23.10;99.90;;;;;;5032982;28;20021;-47
2023/11/25 02:37:46;;;;;;;3.20;1.90;;;23.10;99.90;;;;;;5032476;28;20354;-49
2023/11/25 02:40:18;;;;;;;2.95;2.20;;;23.10;99.90;;;;;;5031866;28;20045;-49
2023/11/25 02:42:47;;;;;;;3.30;2.30;;;23.10;99.90;;;;;;5031900;28;20116;-49
2023/11/25 02:45:22;;;;;;;2.83;2.13;;;23.10;99.90;;;;;;5032912;28;20025;-49
2023/11/25 02:47:49;;;;;;;2.70;2.00;;;23.00;99.90;;;;;;5031401;28;20037;-49
2023/11/25 02:50:16;;;;;;;4.07;2.25;;;23.00;99.90;;;;;;5031397;28;20022;-49
2023/11/25 02:52:43;;;;;;;2.75;1.98;;;23.00;99.90;;;;;;5031496;28;20411;-48
2023/11/25 02:55:12;;;;;;;3.65;2.20;;;23.00;99.90;;;;;;5031652;28;20029;-47
2023/11/25 02:57:43;;;;;;;3.78;2.38;;;23.00;99.90;;;;;;5013900;28;20025;-47
2023/11/25 03:00:28;;;;;;;2.17;1.88;;;23.00;99.90;;;;;;5031422;28;20017;-48
2023/11/25 03:02:53;;;;;;;3.78;2.08;;;23.00;99.90;;;;;;5109483;27;20438;-47
2023/11/25 03:05:22;;;;;;;2.53;1.80;;;23.00;99.90;;;;;;5108296;28;20026;-47
2023/11/25 03:07:50;;;;;;;2.88;2.15;;;23.00;99.90;;;;;;5109182;28;20471;-47
2023/11/25 03:10:16;;;;;;;3.20;1.83;;;23.00;99.90;;;;;;5093367;28;20039;-47
2023/11/25 03:12:44;;;;;;;3.57;2.40;;;23.00;99.90;;;;;;5086906;28;20113;-47
2023/11/25 03:15:11;;;;;;;;;;;22.90;99.90;;;;;;5087970;28;20347;-47
2023/11/25 03:17:38;;;;;;;3.03;2.20;;;22.90;99.90;;;;;;5089058;28;19957;-47
2023/11/25 03:20:06;;;;;;;2.30;1.80;;;22.90;99.90;;;;;;5088985;28;20043;-48
2023/11/25 03:22:33;;;;;;;2.63;2.05;;;22.90;99.90;;;;;;5087631;28;20484;-47
2023/11/25 03:24:58;;;;;;;2.75;2.08;;;22.90;99.90;;;;;;5087229;28;20123;-47
2023/11/25 03:27:24;;;;;;;2.22;1.85;;;22.90;99.90;;;;;;5089761;28;20020;-47
2023/11/25 03:29:51;;;;;;;3.28;2.17;;;22.90;99.90;;;;;;5088757;28;20020;-48
2023/11/25 03:32:19;;;;;;;2.55;1.80;;;22.90;99.90;;;;;;5087441;28;20020;-47
2023/11/25 03:34:45;;;;;;;2.33;1.65;;;22.90;99.90;;;;;;5088215;28;20107;-47
2023/11/25 03:37:11;;;;;;;4.18;2.00;;;22.80;99.90;;;;;;5088228;28;20166;-47
2023/11/25 03:39:36;;;;;;;1.63;1.48;;;22.80;99.90;;;;;;5089104;28;20099;-47
2023/11/25 03:42:04;;;;;;;2.63;2.08;;;22.80;99.90;;;;;;5087903;28;20028;-48
2023/11/25 03:44:31;;;;;;;2.58;1.88;;;22.80;99.90;;;;;;5089213;28;20165;-48
2023/11/25 03:46:57;;;;;;;1.77;1.40;;;22.80;99.90;;;;;;5089065;28;20028;-48
2023/11/25 03:49:23;;;;;;;4.32;2.17;;;22.80;99.90;;;;;;5089336;28;20551;-48
2023/11/25 03:51:50;;;;;;;2.50;1.80;;;22.80;99.90;;;;;;5088933;28;20029;-48
2023/11/25 03:54:16;;;;;;;3.85;2.22;;;22.80;99.90;;;;;;5088839;28;20028;-48
2023/11/25 03:56:41;;;;;;;1.70;1.60;;;22.80;99.90;;;;;;5088796;28;20064;-48
2023/11/25 03:59:08;;;;;;;2.90;2.00;;;22.80;99.90;;;;;;5088915;28;20034;-48
2023/11/25 04:01:34;;;;;;;2.53;2.00;;;22.70;99.90;;;;;;5089056;28;20040;-48
2023/11/25 04:04:01;;;;;;;5.03;2.28;;;22.80;99.90;;;;;;5088747;28;20027;-48
2023/11/25 04:06:27;;;;;;;3.65;2.38;;;22.70;99.90;;;;;;5088717;28;20070;-49
2023/11/25 04:08:53;;;;;;;2.55;1.77;;;22.70;99.90;;;;;;5088714;28;20032;-48
2023/11/25 04:11:19;;;;;;;3.17;1.92;;;22.70;99.90;;;;;;5088515;28;20464;-48
2023/11/25 04:13:44;;;;;;;4.93;2.08;;;22.70;99.90;;;;;;5077819;28;20035;-48
2023/11/25 04:16:11;;;;;;;3.33;2.13;;;22.70;99.90;;;;;;5074914;28;20021;-49
2023/11/25 04:18:37;;;;;;;3.20;1.98;;;22.70;99.90;;;;;;5073726;28;20081;-48
2023/11/25 04:21:04;;;;;;;3.13;2.20;;;22.70;99.90;;;;;;5074789;28;20449;-48
2023/11/25 04:23:31;;;;;;;5.25;2.22;;;22.70;99.90;;;;;;5074757;28;20031;-48
2023/11/25 04:25:57;;;;;;;6.70;2.75;;;22.70;99.90;;;;;;5073629;28;20116;-48
2023/11/25 04:28:23;;;;;;;5.00;2.13;;;22.70;99.90;;;;;;5075004;28;20028;-48
2023/11/25 04:30:48;;;;;;;3.25;2.05;;;22.70;99.90;;;;;;5074921;28;20384;-48
2023/11/25 04:33:14;;;;;;;6.30;2.20;;;22.60;99.90;;;;;;5074740;28;20017;-48
2023/11/25 04:35:40;;;;;;;4.70;2.10;;;22.70;99.90;;;;;;5074742;28;20033;-48
2023/11/25 04:38:07;;;;;;;2.60;1.90;;;22.60;99.90;;;;;;5074524;28;20025;-49
2023/11/25 04:40:33;;;;;;;3.77;1.67;;;22.60;99.90;;;;;;5074554;28;20103;-48
2023/11/25 04:42:59;;;;;;;2.97;1.92;;;22.60;99.90;;;;;;5074629;28;20103;-48
2023/11/25 04:45:25;;;;;;;3.67;1.92;;;22.60;99.90;;;;;;5074587;28;20453;-48
2023/11/25 04:47:51;;;;;;;4.32;2.22;;;22.60;99.90;;;;;;5074350;28;20028;-48
2023/11/25 04:50:18;;;;;;;4.50;2.42;;;22.60;99.90;;;;;;5074426;28;20027;-48
2023/11/25 04:52:44;;;;;;;4.00;2.10;;;22.60;99.90;;;;;;5074163;28;20017;-48
2023/11/25 04:55:14;;;;;;;5.43;1.98;;;22.50;99.90;;;;;;5074295;28;20090;-48
2023/11/25 04:57:40;;;;;;;3.22;1.63;;;22.50;99.90;;;;;;5074250;28;20024;-48
2023/11/25 05:00:11;;;;;;;5.65;1.75;;;22.50;99.90;;;;;;5074225;28;20025;-49
2023/11/25 05:02:37;;;;;;;3.65;2.45;;;22.50;99.90;;;;;;5074360;28;20393;-49
2023/11/25 05:05:04;;;;;;;5.80;2.28;;;22.50;99.90;;;;;;5073989;28;20020;-48
2023/11/25 05:07:31;;;;;;;4.25;2.40;;;22.60;99.90;;;;;;5073974;28;20104;-48
2023/11/25 05:09:56;;;;;;;5.72;1.92;;;22.50;99.90;;;;;;5074094;28;20104;-48
2023/11/25 05:12:23;;;;;;;3.30;2.10;;;22.50;99.90;;;;;;5073949;28;20079;-48
2023/11/25 05:14:50;;;;;;;3.15;1.90;;;22.50;99.90;;;;;;5073998;28;20052;-49
2023/11/25 05:17:16;;;;;;;8.13;2.50;;;22.50;99.90;;;;;;5073790;28;20057;-48
2023/11/25 05:19:42;;;;;;;3.90;1.95;;;22.50;99.90;;;;;;5073860;28;20468;-48
2023/11/25 05:22:08;;;;;;;3.78;2.42;;;22.40;99.90;;;;;;5073606;28;20170;-48
2023/11/25 05:24:34;;;;;;;2.92;1.83;;;22.40;99.90;;;;;;5072749;28;20020;-48
2023/11/25 05:27:00;;;;;;;4.85;2.13;;;22.40;99.90;;;;;;5073589;28;20029;-48
2023/11/25 05:29:26;;;;;;;3.45;2.05;;;22.40;99.90;;;;;;5073745;28;20464;-47
2023/11/25 05:31:52;;;;;;;2.92;1.85;;;22.40;99.90;;;;;;5073617;28;20094;-49
2023/11/25 05:34:18;;;;;;;3.35;1.95;;;22.40;99.90;;;;;;5073331;28;20025;-48
2023/11/25 05:36:44;;;;;;;2.63;1.85;;;22.40;99.90;;;;;;5073326;28;20029;-47
2023/11/25 05:39:13;;;;;;;4.93;2.28;;;22.40;99.90;;;;;;5073416;28;20020;-47
2023/11/25 05:41:40;;;;;;;3.85;1.80;;;22.40;99.90;;;;;;5073141;28;20036;-48
2023/11/25 05:44:10;;;;;;;3.17;1.93;;;22.40;99.90;;;;;;5073341;28;20026;-48
2023/11/25 05:46:36;;;;;;;3.45;1.73;;;22.40;99.90;;;;;;5073292;28;20020;-47
2023/11/25 05:49:04;;;;;;;7.13;1.70;;;22.40;99.90;;;;;;5073033;28;20494;-48
2023/11/25 05:51:33;;;;;;;;;;;22.40;99.90;;;;;;5073662;28;20036;-48
2023/11/25 05:53:59;;;;;;;6.07;2.38;;;22.40;99.90;;;;;;5073212;28;19904;-48
2023/11/25 05:56:29;;;;;;;2.60;1.73;;;22.30;99.90;;;;;;5073132;28;20026;-47
2023/11/25 05:58:56;;;;;;;6.75;2.10;;;22.30;99.90;;;;;;5072903;28;20016;-48
2023/11/25 06:01:22;;;;;;;3.22;2.03;;;22.30;99.90;;;;;;5079818;28;20052;-48
2023/11/25 06:03:52;;;;;;;4.22;1.88;;;22.30;99.90;;;;;;5091699;28;20083;-47
2023/11/25 06:06:22;;;;;;;3.60;1.85;;;22.30;99.90;;;;;;5091544;28;20035;-47
2023/11/25 06:08:49;;;;;;;2.78;1.80;;;22.30;99.90;;;;;;5092200;28;20421;-48
2023/11/25 06:11:22;;;;;;;2.80;1.48;;;22.30;99.90;;;;;;5093007;28;20020;-48
2023/11/25 06:13:48;;;;;;;4.18;1.60;;;22.30;99.90;;;;;;5092916;28;20491;-47
2023/11/25 06:16:14;;;;;;;5.25;2.00;;;22.30;99.90;;;;;;5092397;28;20062;-47
2023/11/25 06:18:40;;;;;;;2.20;1.50;;;22.30;99.90;;;;;;5092588;28;20020;-47
2023/11/25 06:21:06;;;;;;;3.08;1.65;;;22.20;99.90;;;;;;5092693;28;20020;-48
2023/11/25 06:23:32;;;;;;;3.60;1.60;;;22.20;99.90;;;;;;5092981;28;20032;-48
2023/11/25 06:25:59;;;;;;;2.25;1.48;;;22.20;99.90;;;;;;5093073;28;20387;-50
2023/11/25 06:28:25;;;;;;;2.38;1.58;;;22.20;99.90;;;;;;5092729;28;20460;-48
2023/11/25 06:30:54;;;;;;;2.55;1.90;;;22.20;99.90;;;;;;5092665;28;20035;-48
2023/11/25 06:33:26;;;;;;;3.80;1.60;;;22.20;99.90;;;;;;5092731;28;20415;-48
2023/11/25 06:35:55;;;;;;;3.78;1.85;;;22.30;99.90;;;;;;5091165;28;20444;-48
2023/11/25 06:38:21;;;;;;;3.08;1.80;;;22.20;99.90;;;;;;5092608;28;20435;-48
2023/11/25 06:40:47;;;;;;;3.33;1.50;;;22.20;99.90;;;;;;5092442;28;20043;-48
2023/11/25 06:43:15;;;;;;;2.97;1.80;;;22.20;99.90;;;;;;5091429;28;20456;-48
2023/11/25 06:45:43;;;;;;;2.90;1.70;;;22.20;99.90;;;;;;5092528;28;20027;-48
2023/11/25 06:48:09;;;;;;;2.20;1.67;;;22.20;99.90;;;;;;5092550;28;20388;-48
2023/11/25 06:50:35;;;;;;;4.13;1.85;;;22.20;99.90;;;;;;5092345;28;20016;-48
2023/11/25 06:53:03;;;;;;;3.17;1.40;;;22.20;99.90;;;;;;5092661;28;20030;-48
2023/11/25 06:55:29;;;;;;;2.30;1.50;;;22.20;99.90;;;;;;5092359;28;20486;-47
2023/11/25 06:57:55;;;;;;;4.20;2.03;;;22.20;99.90;;;;;;5092261;28;20062;-47
2023/11/25 07:00:22;;;;;;;3.35;1.30;;;22.20;99.90;;;;;;5092286;28;20384;-48
2023/11/25 07:02:48;;;;;;;2.37;1.70;;;22.20;99.90;;;;;;5092157;28;20036;-47
2023/11/25 07:05:14;;;;;;;3.47;1.83;;;22.20;99.90;;;;;;5092275;28;20248;-47
2023/11/25 07:07:41;;;;;;;3.95;1.65;;;22.20;99.90;;;;;;5092424;28;20024;-47
2023/11/25 07:10:13;;;;;;;3.20;1.40;;;22.20;99.90;;;;;;5092237;28;20099;-47
2023/11/25 07:12:40;;;;;;;2.30;1.40;;;22.20;99.90;;;;;;5092251;28;20464;-47
2023/11/25 07:15:08;;;;;;;3.67;1.63;;;22.20;99.90;;;;;;5092234;28;20024;-48
2023/11/25 07:17:36;;;;;;;2.95;1.67;;;22.10;99.90;;;;;;5091115;28;20039;-47
2023/11/25 07:20:02;;;;;;;3.08;1.90;;;22.10;99.90;;;;;;5092373;28;20020;-47
2023/11/25 07:22:28;;;;;;;3.13;1.52;;;22.10;99.90;;;;;;5092105;28;20054;-47
2023/11/25 07:24:54;;;;;;;3.55;1.55;;;22.10;99.90;;;;;;5092002;28;20487;-47
2023/11/25 07:27:23;;;;;;;2.30;1.60;;;22.10;99.90;;;;;;5092056;28;20044;-48
2023/11/25 07:29:49;;;;;;;2.83;1.65;;;22.10;99.90;;;;;;5092065;28;20020;-48
2023/11/25 07:32:15;;;;;;;2.15;1.85;;;22.20;99.90;;;;;;5091872;28;20027;-48
2023/11/25 07:34:41;;;;;;;3.25;1.40;;;22.20;99.90;;;;;;5091917;28;20028;-47
2023/11/25 07:37:07;;;;;;;2.47;1.60;;;22.20;99.90;;;;;;5092117;28;20463;-48
2023/11/25 07:39:34;;;;;;;2.47;1.58;;;22.20;99.90;;;;;;5092550;28;20383;-47
2023/11/25 07:42:01;;;;;;;1.83;1.42;;;22.20;99.90;;;;;;5091797;28;20471;-48
2023/11/25 07:44:33;;;;;;;2.20;1.02;;;22.20;99.90;;;;;;5091974;28;20544;-48
2023/11/25 07:46:59;;;;;;;3.28;1.70;;;22.30;99.90;;;;;;5091972;28;20390;-48
2023/11/25 07:49:25;;;;;;;2.00;1.60;;;22.30;99.90;;;;;;5095259;28;20016;-48
2023/11/25 07:51:51;;;;;;;3.42;1.58;;;22.30;99.90;;;;;;5095685;28;20052;-48
2023/11/25 07:54:18;;;;;;;1.48;1.23;;;22.30;99.90;;;;;;5095598;28;20058;-48
2023/11/25 07:56:44;;;;;;;2.33;1.70;;;22.30;99.90;;;;;;5095695;28;20103;-47
2023/11/25 07:59:10;;;;;;;2.88;1.60;;;22.40;99.90;;;;;;5095567;28;20134;-48
2023/11/25 08:01:37;;;;;;;2.80;1.50;;;22.40;99.90;;;;;;5095448;28;20040;-48
2023/11/25 08:04:03;;;;;;;2.08;1.63;;;22.40;99.90;;;;;;5095401;28;20020;-48
2023/11/25 08:06:29;;;;;;;3.40;1.37;;;22.50;99.90;;;;;;5095480;28;20016;-48
2023/11/25 08:08:55;;;;;;;4.50;1.65;;;22.50;99.90;;;;;;5095296;28;20024;-49
2023/11/25 08:11:25;;;;;;;2.60;1.70;;;22.50;99.90;;;;;;5095331;28;20048;-49
2023/11/25 08:13:51;;;;;;;5.20;1.67;;;22.60;99.90;;;;;;5095449;28;20050;-49
2023/11/25 08:16:20;;;;;;;3.70;1.70;;;22.60;99.90;;;;;;5095387;28;20026;-48
2023/11/25 08:18:46;;;;;;;2.63;1.55;;;22.60;99.90;;;;;;5095294;28;20024;-48
2023/11/25 08:21:13;;;;;;;3.20;1.85;;;22.60;99.90;;;;;;5094939;28;20063;-48
2023/11/25 08:23:43;;;;;;;2.33;1.53;;;22.70;99.90;;;;;;5093861;28;20383;-48
2023/11/25 08:26:19;;;;;;;2.90;1.63;;;22.70;99.90;;;;;;5095188;28;20024;-48
2023/11/25 08:28:45;;;;;;;2.42;1.60;;;22.70;99.90;;;;;;5094927;28;20016;-48
2023/11/25 08:31:11;;;;;;;2.88;1.60;;;22.80;99.90;;;;;;5094921;28;20490;-48
2023/11/25 08:33:39;;;;;;;3.90;1.52;;;22.80;99.90;;;;;;5093714;28;20035;-49
2023/11/25 08:36:06;;;;;;;2.55;1.73;;;22.90;99.90;;;;;;5094893;28;20023;-48
2023/11/25 08:38:32;;;;;;;4.93;2.00;;;22.80;99.90;;;;;;5094741;28;20023;-48
2023/11/25 08:40:57;;;;;;;2.80;1.63;;;22.90;99.90;;;;;;5094621;28;20036;-48
2023/11/25 08:43:23;;;;;;;2.83;1.58;;;22.90;99.90;;;;;;5094726;28;20079;-48
2023/11/25 08:45:49;;;;;;;4.25;1.80;;;22.90;99.90;;;;;;5094634;28;20020;-48
2023/11/25 08:48:15;;;;;;;6.25;2.70;;;23.00;99.90;;;;;;5094579;28;20399;-48
2023/11/25 08:50:43;;;;;;;2.90;2.10;;;23.00;99.90;;;;;;5094485;28;20020;-48
2023/11/25 08:53:08;;;;;;;2.70;1.60;;;23.00;99.90;;;;;;5094620;28;20023;-48
2023/11/25 08:55:34;;;;;;;4.78;1.48;;;23.00;99.90;;;;;;5094366;28;20381;-48
2023/11/25 08:58:01;;;;;;;2.92;1.70;;;23.10;99.90;;;;;;5094514;28;20024;-48
2023/11/25 09:00:29;;;;;;;3.35;2.10;;;23.10;99.90;;;;;;5093838;28;20020;-49
2023/11/25 09:02:57;;;;;;;4.03;2.17;;;23.10;99.90;;;;;;5094005;28;20032;-51
2023/11/25 09:05:25;;;;;;;4.50;2.20;;;23.20;99.90;;;;;;5094233;28;20020;-48
2023/11/25 09:07:59;;;;;;;3.20;2.28;;;23.20;99.90;;;;;;5094163;28;20043;-48
2023/11/25 09:10:26;;;;;;;3.78;1.98;;;23.20;99.90;;;;;;5094090;28;20095;-48
2023/11/25 09:12:52;;;;;;;5.55;1.85;;;23.30;99.90;;;;;;5094173;28;20031;-48
2023/11/25 09:15:19;;;;;;;8.52;2.45;;;23.30;99.90;;;;;;5093826;28;20372;-48
2023/11/25 09:17:45;;;;;;;6.35;2.25;;;23.30;99.90;;;;;;5092788;28;20490;-48
2023/11/25 09:20:16;;;;;;;5.35;2.30;;;23.40;99.90;;;;;;5092762;28;20024;-48
2023/11/25 09:22:43;;;;;;;6.22;2.20;;;23.40;99.90;;;;;;5093910;28;20028;-49
2023/11/25 09:25:12;;;;;;;3.65;2.60;;;23.40;99.90;;;;;;5094083;28;20020;-49
2023/11/25 09:27:41;;;;;;;7.18;2.50;;;23.50;99.90;;;;;;5094109;28;20028;-49
2023/11/25 09:30:14;;;;;;;7.30;2.97;;;23.50;99.90;;;;;;5094237;28;20371;-49
2023/11/25 09:32:41;;;;;;;4.82;3.10;;;23.50;99.90;;;;;;5093930;28;20027;-48
2023/11/25 09:35:10;;;;;;;4.95;2.70;;;23.60;99.90;;;;;;5093591;28;20059;-49
2023/11/25 09:37:40;;;;;;;4.60;2.38;;;23.60;99.90;;;;;;5093495;28;20032;-49
2023/11/25 09:40:14;;;;;;;6.03;2.80;;;23.60;99.90;;;;;;5093423;28;20024;-48
2023/11/25 09:42:41;;;;;;;4.65;2.92;;;23.70;99.90;;;;;;5093555;28;20036;-48
2023/11/25 09:45:09;;;;;;;3.28;2.28;;;23.70;99.90;;;;;;5093568;28;20039;-48
2023/11/25 09:47:36;;;;;;;7.38;2.88;;;23.70;99.90;;;;;;5093335;28;20459;-48
2023/11/25 09:50:02;;;;;;;5.60;2.88;;;23.70;99.90;;;;;;5093450;28;20103;-48
2023/11/25 09:52:32;;;;;;;5.50;2.95;;;23.80;99.90;;;;;;5093168;28;20107;-49
2023/11/25 09:54:59;;;;;;;5.78;3.20;;;23.90;99.90;;;;;;5093154;28;20020;-49
2023/11/25 09:57:32;;;;;;;3.67;2.55;;;23.90;99.90;;;;;;5093159;28;20020;-48
2023/11/25 09:59:59;;;;;;;4.95;3.00;;;23.90;99.90;;;;;;5093171;28;20024;-49
2023/11/25 10:02:27;;;;;;;;;;;24.00;99.90;;;;;;5093301;28;20048;-48
2023/11/25 10:04:53;;;;;;;;;;;24.00;99.90;;;;;;5093522;28;20283;-48
2023/11/25 10:07:20;;;;;;;3.25;2.30;;;24.10;99.90;;;;;;5108763;28;19925;-49
2023/11/25 10:09:46;;;;;;;7.80;2.80;;;24.10;99.90;;;;;;5092998;28;20105;-49
2023/11/25 10:12:13;;;;;;;4.82;3.33;;;24.20;99.90;;;;;;5092910;28;20075;-49
2023/11/25 10:14:42;;;;;;;4.70;3.33;;;24.30;99.90;;;;;;5092942;28;20066;-48
2023/11/25 10:17:21;;;;;;;3.75;2.90;;;24.30;99.90;;;;;;5092895;28;20372;-49
2023/11/25 10:19:48;;;;;;;5.93;3.72;;;24.30;99.90;;;;;;5092860;28;20024;-48
2023/11/25 10:22:16;;;;;;;3.77;2.87;;;24.40;99.90;;;;;;5092947;28;20494;-49
2023/11/25 10:24:49;;;;;;;6.75;3.33;;;24.40;99.90;;;;;;5092884;28;20024;-49
2023/11/25 10:27:17;;;;;;;7.78;3.33;;;24.50;99.90;;;;;;5092913;28;20472;-49
2023/11/25 10:29:42;;;;;;;6.30;3.25;;;24.50;99.90;;;;;;5093270;28;20027;-49
2023/11/25 10:32:10;;;;;;;6.75;3.08;;;24.60;99.90;;;;;;5092467;28;20028;-49
2023/11/25 10:34:38;;;;;;;5.55;3.30;;;24.60;99.90;;;;;;5092577;28;20024;-49
2023/11/25 10:37:04;;;;;;;6.28;3.72;;;24.70;99.90;;;;;;5092403;28;20043;-49
2023/11/25 10:39:34;;;;;;;7.45;3.35;;;24.70;99.90;;;;;;5092690;28;20023;-49
2023/11/25 10:42:07;;;;;;;4.68;3.08;;;24.80;99.90;;;;;;5092538;28;20508;-49
2023/11/25 10:44:34;;;;;;;11.32;3.70;;;24.80;99.90;;;;;;5092754;28;20023;-49
2023/11/25 10:47:02;;;;;;;;;;;24.90;99.90;;;;;;5093034;28;20020;-49
2023/11/25 10:49:31;;;;;;;5.70;3.65;;;24.90;99.90;;;;;;5092357;28;19961;-49
2023/11/25 10:52:00;;;;;;;3.28;2.55;;;24.90;99.90;;;;;;5092782;28;20059;-49
2023/11/25 10:54:31;;;;;;;6.05;3.28;;;25.00;99.90;;;;;;5092287;28;20024;-49
2023/11/25 10:56:59;;;;;;;5.40;3.20;;;25.00;99.90;;;;;;5092180;28;20399;-49
2023/11/25 10:59:28;;;;;;;5.55;3.03;;;25.10;99.90;;;;;;5092125;28;20021;-50
2023/11/25 11:01:59;;;;;;;5.53;3.00;;;25.10;99.90;;;;;;5091973;28;20055;-49
2023/11/25 11:04:36;;;;;;;4.55;3.10;;;25.10;99.90;;;;;;5092155;28;20032;-49
2023/11/25 11:07:06;;;;;;;10.02;3.70;;;25.20;99.90;;;;;;5092354;28;20149;-50
2023/11/25 11:09:35;;;;;;;6.93;3.65;;;25.20;99.90;;;;;;5092221;28;20032;-49
2023/11/25 11:12:06;;;;;;;7.80;3.13;;;25.20;99.90;;;;;;5092212;28;20486;-49
2023/11/25 11:14:37;;;;;;;7.70;3.30;;;25.30;99.90;;;;;;5092301;28;20019;-49
2023/11/25 11:17:27;;;;;;;4.82;3.05;;;25.30;99.90;;;;;;5092226;28;20028;-49
2023/11/25 11:19:57;;;;;;;4.13;2.88;;;25.40;99.90;;;;;;5092054;28;20017;-49
2023/11/25 11:22:25;;;;;;;5.55;3.22;;;25.40;99.90;;;;;;5092060;28;20024;-49
2023/11/25 11:25:07;;;;;;;6.72;3.50;;;25.40;99.90;;;;;;5096227;28;20027;-49
2023/11/25 11:27:55;;;;;;;7.03;4.05;;;25.40;99.90;;;;;;5096357;28;20016;-49
2023/11/25 11:30:34;;;;;;;7.05;3.33;;;25.50;99.90;;;;;;5096100;28;20035;-49
2023/11/25 11:33:01;;;;;;;7.85;3.42;;;25.50;99.90;;;;;;5094778;28;20490;-49
2023/11/25 11:35:37;;;;;;;6.38;3.10;;;25.50;99.90;;;;;;5096040;28;20448;-49
2023/11/25 11:38:28;;;;;;;4.97;3.28;;;25.50;99.90;;;;;;5096071;28;20085;-49
2023/11/25 11:41:20;;;;;;;5.00;3.15;;;25.60;99.90;;;;;;5095616;28;20464;-49
2023/11/25 11:44:10;;;;;;;5.63;3.00;;;25.60;99.90;;;;;;5095613;28;20028;-49
2023/11/25 11:46:42;;;;;;;4.00;3.03;;;25.60;99.90;;;;;;5095988;28;20027;-49
2023/11/25 11:49:10;;;;;;;7.30;3.55;;;25.70;99.90;;;;;;5095618;28;20020;-49
2023/11/25 11:51:36;;;;;;;6.20;3.10;;;25.70;99.90;;;;;;5095825;28;20027;-49
2023/11/25 11:54:20;;;;;;;3.58;2.67;;;25.70;99.90;;;;;;5095518;28;20052;-49
2023/11/25 11:57:02;;;;;;;4.38;2.47;;;25.80;99.90;;;;;;5095534;28;20094;-49
2023/11/25 11:59:59;;;;;;;8.55;3.00;;;25.80;99.90;;;;;;5095364;28;20020;-49
2023/11/25 12:02:29;;;;;;;4.25;2.85;;;25.80;99.90;;;;;;5095037;28;20495;-49
2023/11/25 12:04:57;;;;;;;7.32;2.97;;;25.80;99.90;;;;;;5095252;28;20028;-49
2023/11/25 12:07:23;;;;;;;3.78;2.72;;;25.90;99.90;;;;;;5093964;28;20097;-49
2023/11/25 12:09:49;;;;;;;3.92;2.75;;;25.90;99.90;;;;;;5095234;28;20024;-49
2023/11/25 12:12:15;;;;;;;5.32;3.00;;;25.90;99.90;;;;;;5094975;28;20085;-49
2023/11/25 12:14:41;;;;;;;4.68;3.20;;;25.90;99.90;;;;;;5095029;28;20039;-49
2023/11/25 12:17:08;;;;;;;4.60;2.60;;;25.90;99.90;;;;;;5094071;28;20024;-49
2023/11/25 12:19:34;;;;;;;8.60;3.00;;;25.90;99.90;;;;;;5095273;28;20093;-49
2023/11/25 12:22:00;;;;;;;5.45;2.88;;;25.90;99.90;;;;;;5094788;28;20040;-49
2023/11/25 12:24:26;;;;;;;3.60;2.60;;;26.00;99.90;;;;;;5094835;28;20020;-49
2023/11/25 12:26:56;;;;;;;4.53;3.20;;;26.00;99.90;;;;;;5094978;28;20040;-49
2023/11/25 12:29:23;;;;;;;4.65;2.40;;;26.00;99.90;;;;;;5094880;28;20498;-49
2023/11/25 12:31:49;;;;;;;4.75;3.25;;;26.00;99.90;;;;;;5094860;28;20537;-49
2023/11/25 12:34:19;;;;;;;4.70;2.60;;;26.10;99.90;;;;;;5093047;28;20020;-49
2023/11/25 12:36:45;;;;;;;3.38;2.10;;;26.00;99.90;;;;;;5094759;28;20024;-49
2023/11/25 12:39:12;;;;;;;3.83;2.78;;;26.10;99.90;;;;;;5094699;28;20028;-49
2023/11/25 12:41:39;;;;;;;3.55;2.25;;;26.10;99.90;;;;;;5094603;28;20106;-49
2023/11/25 12:44:11;;;;;;;3.60;2.10;;;26.10;99.90;;;;;;5094795;28;20032;-49
2023/11/25 12:46:41;;;;;;;3.42;2.53;;;26.20;99.90;;;;;;5094543;28;20095;-49
2023/11/25 12:49:24;;;;;;;4.50;2.40;;;26.20;99.90;;;;;;5094391;28;20016;-49
2023/11/25 12:51:51;;;;;;;3.33;2.70;;;26.20;99.90;;;;;;5094297;28;20026;-49